Seabreeze 1 — V3RT5 — position and weather

sailwx.info

Track history (hours):
 
Tides and Currents Weather Stations Pressure Air Temp Water Temp Dewpoint Dewpoint Depression Visibility Wind Speed Wind Dir Waves Ship Positions

Seabreeze 1

Last reported at 2014-Jul-23 22:33 UTC. Time now 2014-Jul-25 18:22 UTC.
Position N 35°40' E 027°51'.

Length 139 m; draft 2.5 m.

Type: Cargo ship. MMSI: 312411000.

Date/timePositionNaut miles runAvg speedWind from/ knotsBaromVisibWave heightAir tempDewpointWater temp
2014-Jul-23 22:33N 35°40' E 027°51'151 8.3
2014-Jul-23 04:25N 33°35' E 029°34'7 8.2
2014-Jul-23 03:33N 33°29' E 029°38'8 8.4
2014-Jul-23 02:33N 33°21' E 029°41'8 8.5
2014-Jul-23 01:33N 33°12' E 029°43'8 8.3
2014-Jul-23 00:33N 33°04' E 029°46'8 8.0
2014-Jul-22 23:33N 32°57' E 029°48'8 7.9
2014-Jul-22 22:33N 32°49' E 029°51'27 8.3
2014-Jul-22 19:20N 32°23' E 029°58'16 8.3
2014-Jul-22 17:25N 32°08' E 030°03'9 8.2
2014-Jul-22 16:23N 31°59' E 030°05'  
2014-Jul-15 23:23N 31°23' E 030°05'0 0.0
2014-Jul-15 22:33N 31°23' E 030°05'0 0.0
2014-Jul-15 21:25N 31°23' E 030°05'0 0.0
2014-Jul-15 12:10N 31°23' E 030°05'0 0.0
2014-Jul-15 02:26N 31°23' E 030°05'0 0.0
2014-Jul-15 01:17N 31°23' E 030°05'  
Track history (hours):
 
Tides and Currents Weather Stations Pressure Air Temp Water Temp Dewpoint Dewpoint Depression Visibility Wind Speed Wind Dir Waves Ship Positions

Seabreeze 1

Last reported at 2014-Jul-23 22:33 UTC. Time now 2014-Jul-25 18:22 UTC.
Position N 35°40' E 027°51'.

Length 139 m; draft 2.5 m.

Type: Cargo ship. MMSI: 312411000.

Date/timePositionNaut miles runAvg speedWind from/ knotsBaromVisibWave heightAir tempDewpointWater temp
2014-Jul-23 22:33N 35°40' E 027°51'151 8.3
2014-Jul-23 04:25N 33°35' E 029°34'7 8.2
2014-Jul-23 03:33N 33°29' E 029°38'8 8.4
2014-Jul-23 02:33N 33°21' E 029°41'8 8.5
2014-Jul-23 01:33N 33°12' E 029°43'8 8.3
2014-Jul-23 00:33N 33°04' E 029°46'8 8.0
2014-Jul-22 23:33N 32°57' E 029°48'8 7.9
2014-Jul-22 22:33N 32°49' E 029°51'27 8.3
2014-Jul-22 19:20N 32°23' E 029°58'16 8.3
2014-Jul-22 17:25N 32°08' E 030°03'9 8.2
2014-Jul-22 16:23N 31°59' E 030°05'  
2014-Jul-15 23:23N 31°23' E 030°05'0 0.0
2014-Jul-15 22:33N 31°23' E 030°05'0 0.0
2014-Jul-15 21:25N 31°23' E 030°05'0 0.0
2014-Jul-15 12:10N 31°23' E 030°05'0 0.0
2014-Jul-15 02:26N 31°23' E 030°05'0 0.0
2014-Jul-15 01:17N 31°23' E 030°05'  

Dump ship's entire track history